| Date | Time | Temp. (oF) | Dew Point (oF) | Rel. Hum. (%) | Press. (in.) | Wind Dir. (deg.) | Wind Speed (mph) | Hourly Rainfall (i n.) |
|
|---|---|---|---|---|---|---|---|---|---|
| 1 | 11/28 | 24:00 | 42 | 34 | 76 | 30.14 | 290 | 0 | 0.00 |
| 2 | 11/27 | 23:00 | 45 | 36 | 73 | 30.13 | 290 | 1 | 0.00 |
| 3 | 11/27 | 22:00 | 46 | 35 | 67 | 30.12 | 290 | 1 | 0.00 |
| 4 | 11/27 | 21:00 | 46 | 35 | 66 | 30.10 | 330 | 0 | 0.00 |
| 5 | 11/27 | 20:00 | 48 | 36 | 65 | 30.10 | 330 | 2 | 0.00 |
| 6 | 11/27 | 19:00 | 47 | 36 | 67 | 30.09 | 330 | 0 | 0.00 |
| 7 | 11/27 | 18:00 | 48 | 36 | 65 | 30.09 | 330 | 1 | 0.00 |
| 8 | 11/27 | 17:00 | 51 | 37 | 61 | 30.08 | 330 | 1 | 0.00 |
| 9 | 11/27 | 16:00 | 54 | 35 | 50 | 30.08 | 290 | 2 | 0.00 |
| 10 | 11/27 | 15:00 | 55 | 33 | 45 | 30.08 | 250 | 4 | 0.00 |
| 11 | 11/27 | 14:00 | 55 | 35 | 48 | 30.08 | 270 | 6 | 0.00 |
| 12 | 11/27 | 13:00 | 55 | 35 | 47 | 30.08 | 310 | 6 | 0.00 |
| 13 | 11/27 | 12:00 | 53 | 34 | 50 | 30.08 | 270 | 6 | 0.00 |
| 14 | 11/27 | 11:00 | 51 | 34 | 54 | 30.10 | 290 | 10 | 0.00 |
| 15 | 11/27 | 10:00 | 49 | 36 | 61 | 30.11 | 10 | 4 | 0.00 |
| 16 | 11/27 | 09:00 | 46 | 35 | 67 | 30.10 | 290 | 7 | 0.00 |
| 17 | 11/27 | 08:00 | 46 | 36 | 70 | 30.08 | 280 | 9 | 0.00 |
| 18 | 11/27 | 07:00 | 46 | 38 | 75 | 30.06 | 260 | 7 | 0.00 |
| 19 | 11/27 | 06:00 | 47 | 38 | 72 | 30.05 | 310 | 4 | 0.00 |
| 20 | 11/27 | 05:00 | 48 | 42 | 82 | 30.03 | 290 | 11 | 0.00 |
| 21 | 11/27 | 04:00 | 49 | 44 | 84 | 30.01 | 290 | 7 | 0.00 |
| 22 | 11/27 | 03:00 | 51 | 49 | 94 | 30.01 | 300 | 6 | 0.00 |
| 23 | 11/27 | 02:00 | 51 | 49 | 95 | 29.99 | 310 | 0 | 0.02 |
| 24 | 11/27 | 01:00 | 52 | 50 | 95 | 30.01 | 290 | 2 | 0.11 |